createdAt,value
2022-09-28T00:01:27.101Z,65.44
2022-09-28T00:03:53.138Z,65.00
2022-09-28T00:06:19.096Z,64.96
2022-09-28T00:08:46.016Z,64.96
2022-09-28T00:11:11.961Z,64.66
2022-09-28T00:13:37.886Z,64.73
2022-09-28T00:16:04.887Z,64.52
2022-09-28T00:18:30.895Z,64.74
2022-09-28T00:20:56.848Z,64.16
2022-09-28T00:23:22.940Z,64.59
2022-09-28T00:25:48.866Z,65.04
2022-09-28T00:28:14.824Z,64.64
2022-09-28T00:30:40.768Z,64.59
2022-09-28T00:33:08.475Z,64.75
2022-09-28T00:35:34.751Z,65.10
2022-09-28T00:38:01.016Z,65.19
2022-09-28T00:40:27.354Z,64.67
2022-09-28T00:42:53.646Z,64.30
2022-09-28T00:45:21.011Z,64.74
2022-09-28T02:38:37.728Z,65.68
2022-09-28T02:41:04.570Z,64.81
2022-09-28T02:43:30.530Z,64.52
2022-09-28T02:45:56.571Z,64.83
2022-09-28T02:48:36.167Z,65.22
2022-09-28T02:51:08.170Z,64.99
2022-09-28T02:53:34.171Z,64.75
2022-09-28T02:56:00.112Z,65.45
2022-09-28T02:58:26.775Z,65.60
2022-09-28T03:00:52.808Z,65.08
2022-09-28T03:03:18.816Z,65.75
2022-09-28T03:05:44.759Z,66.29
2022-09-28T03:08:11.505Z,66.35
2022-09-28T03:10:37.683Z,66.43
2022-09-28T03:13:03.810Z,66.22
2022-09-28T03:15:29.754Z,65.57
2022-09-28T03:17:55.738Z,65.61
2022-09-28T03:20:21.689Z,65.63
2022-09-28T03:23:00.469Z,66.44
2022-09-28T03:25:33.573Z,66.58
2022-09-28T03:28:00.290Z,66.66
2022-09-28T03:30:26.290Z,65.95
2022-09-28T03:32:52.275Z,66.52
2022-09-28T03:35:18.240Z,65.71
2022-09-28T03:37:44.166Z,65.75
2022-09-28T03:40:11.074Z,65.46
2022-09-28T03:42:37.080Z,65.89
2022-09-28T03:45:03.054Z,65.64
2022-09-28T03:47:29.870Z,65.01
2022-09-28T03:49:55.835Z,65.10
2022-09-28T03:52:21.775Z,64.91
2022-09-28T03:54:49.459Z,65.26
2022-09-28T03:57:15.511Z,65.17
2022-09-28T03:59:41.458Z,65.48
2022-09-28T04:02:07.460Z,65.07
2022-09-28T04:04:33.487Z,64.77
2022-09-28T04:06:59.416Z,64.59
2022-09-28T04:09:26.205Z,64.47
2022-09-28T04:12:03.407Z,64.50
2022-09-28T04:14:30.107Z,64.51
2022-09-28T04:16:56.092Z,64.17
2022-09-28T04:19:22.081Z,64.56
2022-09-28T04:21:48.781Z,65.33
2022-09-28T04:24:14.723Z,64.56
2022-09-28T04:26:41.582Z,65.51
2022-09-28T04:29:07.546Z,64.95
2022-09-28T04:31:33.546Z,65.35
2022-09-28T04:34:00.292Z,65.02
2022-09-28T04:36:26.255Z,65.52
2022-09-28T04:38:53.420Z,65.56
2022-09-28T04:41:20.397Z,65.61
2022-09-28T04:43:46.449Z,65.75
2022-09-28T04:46:12.439Z,65.10
2022-09-28T04:48:39.323Z,65.34
2022-09-28T04:51:05.262Z,65.19
2022-09-28T04:53:31.182Z,64.92
2022-09-28T04:55:58.070Z,65.01
2022-09-28T04:58:24.005Z,64.36
2022-09-28T05:00:50.001Z,64.34
2022-09-28T05:03:16.012Z,64.42
2022-09-28T05:05:42.633Z,65.20
2022-09-28T05:08:08.592Z,64.86
2022-09-28T05:10:34.536Z,64.75
2022-09-28T05:13:00.465Z,65.23
2022-09-28T05:15:26.432Z,64.57
2022-09-28T05:17:53.351Z,64.54
2022-09-28T05:20:19.628Z,64.41
2022-09-28T05:22:47.227Z,64.11
2022-09-28T05:25:13.540Z,64.20
2022-09-28T05:27:39.791Z,64.36
2022-09-28T05:30:05.868Z,64.63
2022-09-28T05:32:32.120Z,65.20
2022-09-28T07:37:25.298Z,61.02
2022-09-28T07:39:51.236Z,60.75
2022-09-28T07:42:18.083Z,59.59
2022-09-28T07:44:44.012Z,58.46
2022-09-28T07:47:09.979Z,60.53
2022-09-28T07:49:35.924Z,61.03
2022-09-28T07:52:01.909Z,59.89
2022-09-28T07:54:27.889Z,60.54
2022-09-28T07:56:54.542Z,59.59
2022-09-28T07:59:20.556Z,58.40
2022-09-28T08:01:46.567Z,56.78
2022-09-28T08:04:12.550Z,57.54
2022-09-28T08:06:38.519Z,57.41
2022-09-28T08:09:04.454Z,57.26
2022-09-28T08:11:31.352Z,57.66
2022-09-28T08:13:57.295Z,57.66
2022-09-28T08:16:23.344Z,57.30
2022-09-28T08:18:50.162Z,57.08
2022-09-28T08:21:16.159Z,56.67
2022-09-28T08:23:42.999Z,55.59
2022-09-28T08:26:13.305Z,56.53
2022-09-28T08:28:41.283Z,56.23
2022-09-28T08:31:07.964Z,57.49
2022-09-28T08:33:33.977Z,56.32
2022-09-28T08:35:59.968Z,56.90
2022-09-28T08:38:26.654Z,57.46
2022-09-28T08:40:52.637Z,57.72
2022-09-28T08:43:18.586Z,58.43
2022-09-28T08:45:45.504Z,56.63
2022-09-28T08:48:11.739Z,55.93
2022-09-28T08:50:38.439Z,56.45
2022-09-28T08:53:04.460Z,54.57
2022-09-28T08:55:30.415Z,54.93
2022-09-28T08:57:57.128Z,54.03
2022-09-28T09:00:23.333Z,53.80
2022-09-28T09:02:49.328Z,54.19
2022-09-28T09:05:16.025Z,53.66
2022-09-28T09:07:42.025Z,54.38
2022-09-28T09:10:08.024Z,54.45
2022-09-28T09:12:34.611Z,54.43
2022-09-28T09:15:00.584Z,55.48
2022-09-28T09:17:27.496Z,57.19
2022-09-28T09:19:53.476Z,57.92
2022-09-28T09:22:19.512Z,56.35
2022-09-28T09:24:46.210Z,54.51
2022-09-28T09:27:12.180Z,54.37
2022-09-28T09:29:38.161Z,56.99
2022-09-28T09:32:04.968Z,58.06
2022-09-28T09:34:30.922Z,57.57
2022-09-28T09:36:56.884Z,56.88
2022-09-28T09:39:23.615Z,56.87
2022-09-28T09:41:49.641Z,57.44
2022-09-28T09:44:15.640Z,55.66
2022-09-28T09:46:42.406Z,55.06
2022-09-28T09:49:08.400Z,54.75
2022-09-28T09:51:34.332Z,54.73
2022-09-28T09:54:01.116Z,56.83
2022-09-28T09:56:27.056Z,59.11
2022-09-28T09:58:53.031Z,57.74
2022-09-28T10:01:18.990Z,56.42
2022-09-28T10:03:45.943Z,55.22
2022-09-28T10:06:11.914Z,55.62
2022-09-28T10:08:37.851Z,56.58
2022-09-28T10:11:03.815Z,56.68
2022-09-28T10:13:30.758Z,58.37
2022-09-28T10:15:57.126Z,57.19
2022-09-28T10:18:23.406Z,57.71
2022-09-28T10:20:51.124Z,57.83
2022-09-28T10:23:17.390Z,60.05
2022-09-28T10:25:44.897Z,59.78
2022-09-28T10:28:11.240Z,57.67
2022-09-28T10:30:37.589Z,56.90
2022-09-28T12:34:50.280Z,51.55
2022-09-28T12:37:16.264Z,54.77
2022-09-28T12:39:57.153Z,55.01
2022-09-28T12:42:24.415Z,54.25
2022-09-28T12:44:51.583Z,53.10
2022-09-28T12:47:18.868Z,52.66
2022-09-28T12:50:36.552Z,52.34
2022-09-28T12:52:30.927Z,52.82
2022-09-28T12:54:57.013Z,54.60
2022-09-28T12:57:23.063Z,54.80
2022-09-28T12:59:49.087Z,54.60
2022-09-28T13:02:15.373Z,53.49
2022-09-28T13:04:41.449Z,53.50
2022-09-28T13:07:07.453Z,53.48
2022-09-28T13:09:33.607Z,52.57
2022-09-28T13:11:59.720Z,52.46
2022-09-28T13:14:25.811Z,53.14
2022-09-28T13:16:54.376Z,53.52
2022-09-28T13:19:23.926Z,54.37
2022-09-28T13:21:49.913Z,55.33
2022-09-28T13:24:31.637Z,54.63
2022-09-28T13:26:58.945Z,55.95
2022-09-28T13:29:25.307Z,56.42
2022-09-28T13:31:51.950Z,55.93
2022-09-28T13:34:18.043Z,58.56
2022-09-28T13:36:47.987Z,58.47
2022-09-28T13:39:15.217Z,58.74
2022-09-28T13:41:41.932Z,58.82
2022-09-28T13:44:07.940Z,58.36
2022-09-28T13:46:33.931Z,56.81
2022-09-28T13:49:00.414Z,56.54
2022-09-28T13:51:26.418Z,56.38
2022-09-28T13:53:52.916Z,57.31
2022-09-28T13:56:19.007Z,58.84
2022-09-28T13:58:44.942Z,57.11
2022-09-28T14:01:11.012Z,56.46
2022-09-28T14:03:37.068Z,56.74
2022-09-28T14:06:03.206Z,57.96
2022-09-28T14:08:30.154Z,57.34
2022-09-28T14:10:56.092Z,56.84
2022-09-28T14:13:22.092Z,56.81
2022-09-28T14:15:48.111Z,58.16
2022-09-28T14:18:14.135Z,59.24
2022-09-28T14:20:41.012Z,58.43
2022-09-28T14:23:06.971Z,58.22
2022-09-28T14:25:32.905Z,58.30
2022-09-28T14:27:58.901Z,56.96
2022-09-28T14:30:24.894Z,57.25
2022-09-28T14:32:51.426Z,59.30
2022-09-28T14:35:18.907Z,60.42
2022-09-28T14:37:45.942Z,60.44
2022-09-28T14:40:11.934Z,59.65
2022-09-28T14:45:22.218Z,59.93
2022-09-28T14:47:49.132Z,58.99
2022-09-28T14:50:15.139Z,58.78
2022-09-28T14:52:41.172Z,58.37
2022-09-28T14:55:07.899Z,59.32
2022-09-28T14:57:33.890Z,58.59
2022-09-28T14:59:59.824Z,59.90
2022-09-28T15:02:25.791Z,60.86
2022-09-28T15:04:52.675Z,59.73
2022-09-28T15:07:18.695Z,59.63
2022-09-28T15:09:44.981Z,58.74
2022-09-28T15:12:12.661Z,59.87
2022-09-28T15:14:39.915Z,59.98
2022-09-28T15:17:06.333Z,59.84
2022-09-28T15:19:32.628Z,60.12
2022-09-28T15:21:58.981Z,60.74
2022-09-28T15:24:25.105Z,61.13
2022-09-28T17:29:25.178Z,59.85
2022-09-28T17:31:51.885Z,60.18
2022-09-28T17:34:18.026Z,60.33
2022-09-28T17:36:44.042Z,60.72
2022-09-28T17:39:10.184Z,60.97
2022-09-28T17:41:36.161Z,60.68
2022-09-28T17:44:02.120Z,60.55
2022-09-28T17:46:28.206Z,60.60
2022-09-28T17:48:54.890Z,60.58
2022-09-28T17:51:21.080Z,61.12
2022-09-28T17:53:47.038Z,61.34
2022-09-28T17:56:13.755Z,61.38
2022-09-28T17:58:39.723Z,60.97
2022-09-28T18:01:05.793Z,60.89
2022-09-28T18:03:31.787Z,61.04
2022-09-28T18:05:57.722Z,60.99
2022-09-28T18:08:23.679Z,60.75
2022-09-28T18:10:49.644Z,60.64
2022-09-28T18:13:15.580Z,60.58
2022-09-28T18:15:42.388Z,60.81
2022-09-28T18:18:08.458Z,61.09
2022-09-28T18:20:34.398Z,61.08
2022-09-28T18:23:01.318Z,61.23
2022-09-28T18:25:27.284Z,61.43
2022-09-28T18:27:53.288Z,61.08
2022-09-28T18:30:19.912Z,61.14
2022-09-28T18:32:45.880Z,61.35
2022-09-28T18:35:11.849Z,61.33
2022-09-28T18:37:37.823Z,61.82
2022-09-28T18:40:03.809Z,63.28
2022-09-28T18:42:29.777Z,63.66
2022-09-28T18:44:55.786Z,63.84
2022-09-28T18:47:21.745Z,63.07
2022-09-28T18:49:47.726Z,62.26
2022-09-28T18:52:13.702Z,62.09
2022-09-28T18:54:39.717Z,61.92
2022-09-28T18:57:05.649Z,62.28
2022-09-28T18:59:32.193Z,62.02
2022-09-28T19:01:58.316Z,61.71
2022-09-28T19:04:24.340Z,61.72
2022-09-28T19:06:51.101Z,61.49
2022-09-28T19:09:17.147Z,61.19
2022-09-28T19:11:43.127Z,61.00
2022-09-28T19:14:09.085Z,61.07
2022-09-28T19:16:35.061Z,60.99
2022-09-28T19:19:01.678Z,61.27
2022-09-28T19:21:27.626Z,61.39
2022-09-28T19:23:53.582Z,61.79
2022-09-28T19:26:19.535Z,62.47
2022-09-28T19:28:45.502Z,62.29
2022-09-28T19:31:11.491Z,62.53
2022-09-28T19:33:38.459Z,62.78
2022-09-28T19:36:04.425Z,62.63
2022-09-28T19:38:30.409Z,62.56
2022-09-28T19:40:56.387Z,62.50
2022-09-28T19:43:23.249Z,62.82
2022-09-28T19:45:49.266Z,63.00
2022-09-28T19:48:15.277Z,62.74
2022-09-28T19:50:44.268Z,62.49
2022-09-28T19:53:10.510Z,62.51
2022-09-28T19:55:36.535Z,62.58
2022-09-28T19:58:03.206Z,62.78
2022-09-28T20:00:29.211Z,62.79
2022-09-28T20:02:55.186Z,63.39
2022-09-28T20:05:22.144Z,63.23
2022-09-28T20:07:48.370Z,63.14
2022-09-28T20:10:14.775Z,63.17
2022-09-28T20:12:41.932Z,63.28
2022-09-28T20:15:08.169Z,63.62
2022-09-28T20:17:34.534Z,63.09
2022-09-28T20:20:01.775Z,63.17
2022-09-28T22:27:11.526Z,64.25
2022-09-28T22:29:37.537Z,64.11
2022-09-28T22:32:04.418Z,64.21
2022-09-28T22:34:30.385Z,64.35
2022-09-28T22:36:56.341Z,64.62
2022-09-28T22:39:22.900Z,64.39
2022-09-28T22:41:48.882Z,64.47
2022-09-28T22:44:14.974Z,64.08
2022-09-28T22:46:41.022Z,63.99
2022-09-28T22:49:08.027Z,63.92
2022-09-28T22:51:33.986Z,63.70
2022-09-28T22:53:59.939Z,63.50
2022-09-28T22:56:25.867Z,63.52
2022-09-28T22:58:52.832Z,63.62
2022-09-28T23:01:18.835Z,63.71
2022-09-28T23:03:44.770Z,63.81
2022-09-28T23:06:10.744Z,63.74
2022-09-28T23:08:36.673Z,63.93
2022-09-28T23:11:03.369Z,64.40
2022-09-28T23:13:29.376Z,64.30
2022-09-28T23:15:55.760Z,64.10
2022-09-28T23:18:21.762Z,64.17
2022-09-28T23:20:47.720Z,63.80
2022-09-28T23:23:13.654Z,64.07
2022-09-28T23:25:40.467Z,64.63
2022-09-28T23:28:07.056Z,64.22
2022-09-28T23:30:33.025Z,64.30
2022-09-28T23:32:59.020Z,63.98
2022-09-28T23:35:24.988Z,64.13
2022-09-28T23:37:51.836Z,63.89
2022-09-28T23:40:17.805Z,63.90
2022-09-28T23:42:43.788Z,63.79
2022-09-28T23:45:10.557Z,64.31
2022-09-28T23:47:36.549Z,64.69
2022-09-28T23:50:02.552Z,64.54
2022-09-28T23:52:28.551Z,64.22
2022-09-28T23:54:54.956Z,64.07
2022-09-28T23:57:21.585Z,64.03
2022-09-28T23:59:47.524Z,63.86
